createdAt,value
2019-02-26T00:00:21.427Z,0.00
2019-02-26T00:01:21.074Z,0.00
2019-02-26T00:02:19.820Z,0.00
2019-02-26T00:03:19.785Z,0.00
2019-02-26T00:04:21.044Z,0.00
2019-02-26T00:05:21.389Z,0.00
2019-02-26T00:06:20.656Z,0.00
2019-02-26T00:07:23.393Z,0.00
2019-02-26T00:08:21.422Z,0.00
2019-02-26T00:09:22.366Z,0.00
2019-02-26T00:10:22.289Z,0.00
2019-02-26T00:11:19.054Z,0.00
2019-02-26T00:12:21.940Z,0.00
2019-02-26T00:13:19.029Z,0.00
2019-02-26T00:14:20.329Z,0.00
2019-02-26T00:15:19.005Z,0.00
2019-02-26T00:16:20.527Z,0.00
2019-02-26T00:17:19.585Z,0.00
2019-02-26T00:18:21.340Z,0.00
2019-02-26T00:19:18.954Z,0.00
2019-02-26T00:20:18.942Z,0.00
2019-02-26T00:21:20.445Z,0.00
2019-02-26T00:22:18.917Z,0.00
2019-02-26T00:23:19.834Z,0.00
2019-02-26T00:24:18.891Z,0.00
2019-02-26T00:25:20.412Z,0.00
2019-02-26T00:26:20.640Z,0.00
2019-02-26T00:27:18.854Z,0.00
2019-02-26T00:28:19.766Z,0.00
2019-02-26T00:29:18.833Z,0.00
2019-02-26T00:30:18.822Z,0.00
2019-02-26T00:31:19.616Z,0.00
2019-02-26T00:32:18.794Z,0.00
2019-02-26T00:33:19.548Z,0.00
2019-02-26T00:34:18.767Z,0.00
2019-02-26T00:35:20.689Z,0.00
2019-02-26T00:36:18.741Z,0.00
2019-02-26T00:37:19.998Z,0.00
2019-02-26T00:38:19.865Z,0.00
2019-02-26T00:39:20.525Z,0.00
2019-02-26T00:40:20.163Z,0.00
2019-02-26T00:41:20.649Z,0.00
2019-02-26T00:42:21.540Z,0.00
2019-02-26T00:43:23.343Z,0.00
2019-02-26T00:44:21.149Z,0.00
2019-02-26T00:45:22.363Z,0.00
2019-02-26T00:46:18.614Z,0.00
2019-02-26T00:47:18.602Z,0.00
2019-02-26T00:48:18.589Z,0.00
2019-02-26T00:49:19.101Z,0.00
2019-02-26T00:50:18.563Z,0.00
2019-02-26T00:51:20.563Z,0.00
2019-02-26T00:52:18.538Z,0.00
2019-02-26T00:53:21.222Z,0.00
2019-02-26T00:54:22.166Z,0.00
2019-02-26T00:55:18.498Z,0.00
2019-02-26T00:56:18.485Z,0.00
2019-02-26T00:57:18.474Z,0.00
2019-02-26T00:58:18.460Z,0.00
2019-02-26T00:59:18.447Z,0.00
2019-02-26T01:00:18.434Z,0.00
2019-02-26T01:01:19.939Z,0.00
2019-02-26T01:02:18.409Z,0.00
2019-02-26T01:03:18.395Z,0.00
2019-02-26T01:04:18.383Z,0.00
2019-02-26T01:05:18.371Z,0.00
2019-02-26T01:06:18.360Z,0.00
2019-02-26T01:07:19.120Z,0.00
2019-02-26T01:08:19.845Z,0.00
2019-02-26T01:09:18.318Z,0.00
2019-02-26T01:10:19.324Z,0.00
2019-02-26T01:11:19.411Z,0.00
2019-02-26T01:12:18.384Z,0.00
2019-02-26T01:13:20.108Z,0.00
2019-02-26T01:14:20.239Z,0.00
2019-02-26T01:15:18.240Z,0.00
2019-02-26T01:16:18.278Z,0.00
2019-02-26T01:17:18.828Z,0.00
2019-02-26T01:18:20.129Z,0.00
2019-02-26T01:19:19.897Z,0.00
2019-02-26T01:20:19.530Z,0.00
2019-02-26T01:21:22.158Z,0.00
2019-02-26T01:22:18.157Z,0.00
2019-02-26T01:23:19.467Z,0.00
2019-02-26T01:24:18.125Z,0.00
2019-02-26T01:25:20.457Z,0.00
2019-02-26T01:26:18.099Z,0.00
2019-02-26T01:27:18.086Z,0.00
2019-02-26T01:28:18.645Z,0.00
2019-02-26T01:29:20.484Z,0.00
2019-02-26T01:30:23.641Z,0.00
2019-02-26T01:31:19.815Z,0.00
2019-02-26T01:32:20.555Z,0.00
2019-02-26T01:33:18.010Z,0.00
2019-02-26T01:34:19.919Z,0.00
2019-02-26T01:35:17.984Z,0.00
2019-02-26T01:36:20.416Z,0.00
2019-02-26T01:37:17.959Z,0.00
2019-02-26T01:38:18.827Z,0.00
2019-02-26T01:39:19.223Z,0.00
2019-02-26T01:40:21.066Z,0.00
2019-02-26T01:41:20.334Z,0.00
2019-02-26T01:42:21.645Z,0.00
2019-02-26T01:43:17.883Z,0.00
2019-02-26T01:44:17.871Z,0.00
2019-02-26T01:45:19.507Z,0.00
2019-02-26T01:46:18.759Z,0.00
2019-02-26T01:47:19.570Z,0.00
2019-02-26T01:48:18.554Z,0.00
2019-02-26T01:49:19.202Z,0.00
2019-02-26T01:50:17.797Z,0.00
2019-02-26T01:51:19.364Z,0.00
2019-02-26T01:52:17.769Z,0.00
2019-02-26T01:53:19.804Z,0.00
2019-02-26T01:54:17.745Z,0.00
2019-02-26T01:55:18.398Z,0.00
2019-02-26T01:56:19.919Z,0.00
2019-02-26T01:57:17.707Z,0.00
2019-02-26T01:58:17.695Z,0.00
2019-02-26T01:59:19.057Z,0.00
2019-02-26T02:00:17.669Z,0.00
2019-02-26T02:01:19.201Z,0.00
2019-02-26T02:02:20.279Z,0.00
2019-02-26T02:03:18.935Z,0.00
2019-02-26T02:04:19.514Z,0.00
2019-02-26T02:05:19.674Z,0.00
2019-02-26T02:06:18.147Z,0.00
2019-02-26T02:07:18.950Z,0.00
2019-02-26T02:08:18.490Z,0.00
2019-02-26T02:09:18.682Z,0.00
2019-02-26T02:10:17.543Z,0.00
2019-02-26T02:11:17.530Z,0.00
2019-02-26T02:12:17.518Z,0.00
2019-02-26T02:13:17.505Z,0.00
2019-02-26T02:14:17.495Z,0.00
2019-02-26T02:15:20.792Z,0.00
2019-02-26T02:16:17.467Z,0.00
2019-02-26T02:17:17.455Z,0.00
2019-02-26T02:18:18.124Z,0.00
2019-02-26T02:19:20.121Z,0.00
2019-02-26T02:20:21.037Z,0.00
2019-02-26T02:21:17.405Z,0.00
2019-02-26T02:22:19.085Z,0.00
2019-02-26T02:23:19.389Z,0.00
2019-02-26T02:24:18.247Z,0.00
2019-02-26T02:25:17.355Z,0.00
2019-02-26T02:26:17.342Z,0.00
2019-02-26T02:27:19.425Z,0.00
2019-02-26T02:28:19.581Z,0.00
2019-02-26T02:29:19.140Z,0.00
2019-02-26T02:30:22.450Z,0.00
2019-02-26T02:31:17.280Z,0.00
2019-02-26T02:32:17.267Z,0.00
2019-02-26T02:33:23.170Z,0.00
2019-02-26T02:34:17.242Z,0.00
2019-02-26T02:35:19.190Z,0.00
2019-02-26T02:36:20.330Z,0.00
2019-02-26T02:37:18.568Z,0.00
2019-02-26T02:38:20.500Z,0.00
2019-02-26T02:39:18.202Z,0.00
2019-02-26T02:40:17.167Z,0.00
2019-02-26T02:41:17.155Z,0.00
2019-02-26T02:42:19.017Z,0.00
2019-02-26T02:43:18.072Z,0.00
2019-02-26T02:44:17.900Z,0.00
2019-02-26T02:45:20.714Z,0.00
2019-02-26T02:46:17.091Z,0.00
2019-02-26T02:47:17.079Z,0.00
2019-02-26T02:48:17.116Z,0.00
2019-02-26T02:49:17.900Z,0.00
2019-02-26T02:50:18.429Z,0.00
2019-02-26T02:51:17.047Z,0.00
2019-02-26T02:52:17.017Z,0.00
2019-02-26T02:53:18.611Z,0.00
2019-02-26T02:54:18.688Z,0.00
2019-02-26T02:55:19.323Z,0.00
2019-02-26T02:56:17.979Z,0.00
2019-02-26T02:57:16.951Z,0.00
2019-02-26T02:58:18.252Z,0.00
2019-02-26T02:59:16.934Z,0.00
2019-02-26T03:00:16.983Z,0.00
2019-02-26T03:01:19.542Z,0.00
2019-02-26T03:02:17.656Z,0.00
2019-02-26T03:03:16.875Z,0.00
2019-02-26T03:04:19.591Z,0.00
2019-02-26T03:05:16.853Z,0.00
2019-02-26T03:06:16.839Z,0.00
2019-02-26T03:07:17.841Z,0.00
2019-02-26T03:08:19.419Z,0.00
2019-02-26T03:09:17.799Z,0.00
2019-02-26T03:10:16.798Z,0.00
2019-02-26T03:11:16.775Z,0.00
2019-02-26T03:12:16.762Z,0.00
2019-02-26T03:13:16.983Z,0.00
2019-02-26T03:14:18.661Z,0.00
2019-02-26T03:15:16.728Z,0.00
2019-02-26T03:16:18.972Z,0.00
2019-02-26T03:17:18.209Z,0.00
2019-02-26T03:18:16.954Z,0.00
2019-02-26T03:19:17.045Z,0.00
2019-02-26T03:20:16.664Z,0.00
2019-02-26T03:21:19.581Z,0.00
2019-02-26T03:22:18.903Z,0.00
2019-02-26T03:23:19.788Z,0.00
2019-02-26T03:24:16.613Z,0.00
2019-02-26T03:25:20.059Z,0.00
2019-02-26T03:26:17.886Z,0.00
2019-02-26T03:27:16.576Z,0.00
2019-02-26T03:28:16.564Z,0.00
2019-02-26T03:29:16.551Z,0.00
2019-02-26T03:30:26.074Z,0.00
2019-02-26T03:31:16.527Z,0.00
2019-02-26T03:32:16.519Z,0.00
2019-02-26T03:33:16.502Z,0.00
2019-02-26T03:34:24.225Z,0.00
2019-02-26T03:35:19.219Z,0.00
2019-02-26T03:36:17.321Z,0.00
2019-02-26T03:37:16.452Z,0.00
2019-02-26T03:38:18.113Z,0.00
2019-02-26T03:39:16.427Z,0.00
2019-02-26T03:40:16.416Z,0.00
2019-02-26T03:41:17.055Z,0.00
2019-02-26T03:42:18.591Z,0.00
2019-02-26T03:43:16.421Z,0.00
2019-02-26T03:44:16.371Z,0.00
2019-02-26T03:45:16.352Z,0.00
2019-02-26T03:46:16.340Z,0.00
2019-02-26T03:47:18.792Z,0.00
2019-02-26T03:48:19.328Z,0.00
2019-02-26T03:49:16.302Z,0.00
2019-02-26T03:50:16.294Z,0.00
2019-02-26T03:51:17.851Z,0.00
2019-02-26T03:52:16.265Z,0.00
2019-02-26T03:53:16.255Z,0.00
2019-02-26T03:54:16.240Z,0.00
2019-02-26T03:55:18.739Z,0.00
2019-02-26T03:56:18.405Z,0.00
2019-02-26T03:57:16.854Z,0.00
2019-02-26T03:58:16.190Z,0.00
2019-02-26T03:59:16.177Z,0.00
2019-02-26T04:00:17.432Z,0.00
2019-02-26T04:01:18.764Z,0.00
2019-02-26T04:02:18.156Z,0.00
2019-02-26T04:03:17.446Z,0.00
2019-02-26T04:04:16.113Z,0.00
2019-02-26T04:05:16.101Z,0.00
2019-02-26T04:06:16.088Z,0.00
2019-02-26T04:07:16.074Z,0.00
2019-02-26T04:08:17.050Z,0.00
2019-02-26T04:09:17.252Z,0.00
2019-02-26T04:10:16.038Z,0.00
2019-02-26T04:11:16.828Z,0.00
2019-02-26T04:12:18.300Z,0.00
2019-02-26T04:13:15.998Z,0.00
2019-02-26T04:14:18.087Z,0.00
2019-02-26T04:15:15.972Z,0.00
2019-02-26T04:16:15.961Z,0.00
2019-02-26T04:17:15.948Z,0.00
2019-02-26T04:18:15.935Z,0.00
2019-02-26T04:19:15.922Z,0.00
2019-02-26T04:20:15.908Z,0.00
2019-02-26T04:21:18.305Z,0.00
2019-02-26T04:22:18.775Z,0.00
2019-02-26T04:23:18.680Z,0.00
2019-02-26T04:24:15.858Z,0.00
2019-02-26T04:25:15.844Z,0.00
2019-02-26T04:26:18.835Z,0.00
2019-02-26T04:27:15.818Z,0.00
2019-02-26T04:28:15.805Z,0.00
2019-02-26T04:29:15.794Z,0.00
2019-02-26T04:30:17.058Z,0.00
2019-02-26T04:31:15.770Z,0.00
2019-02-26T04:32:18.169Z,0.00
2019-02-26T04:33:15.748Z,0.00
2019-02-26T04:34:15.729Z,0.00
2019-02-26T04:35:15.715Z,0.00
2019-02-26T04:36:16.953Z,0.00
2019-02-26T04:37:15.691Z,0.00
2019-02-26T04:38:15.678Z,0.00
2019-02-26T04:39:16.921Z,0.00
2019-02-26T04:40:15.653Z,0.00
2019-02-26T04:41:16.024Z,0.00
2019-02-26T04:42:19.765Z,0.00
2019-02-26T04:43:15.613Z,0.00
2019-02-26T04:44:15.609Z,0.00
2019-02-26T04:45:15.586Z,0.00
2019-02-26T04:46:15.575Z,0.00
2019-02-26T04:47:15.560Z,0.00
2019-02-26T04:48:19.315Z,0.00
2019-02-26T04:49:15.535Z,0.00
2019-02-26T04:50:15.529Z,0.00
2019-02-26T04:51:15.558Z,0.00
2019-02-26T04:52:17.396Z,0.00
2019-02-26T04:53:15.484Z,0.00
2019-02-26T04:54:21.185Z,0.00
2019-02-26T04:55:15.457Z,0.00
2019-02-26T04:56:15.443Z,0.00
2019-02-26T04:57:15.430Z,0.00
2019-02-26T04:58:17.589Z,0.00
2019-02-26T04:59:16.934Z,0.00
2019-02-26T05:00:15.391Z,0.00
2019-02-26T05:01:18.775Z,0.00
2019-02-26T05:02:15.365Z,0.00
2019-02-26T05:03:18.082Z,0.00
2019-02-26T05:04:15.348Z,0.00
2019-02-26T05:05:15.327Z,0.00
2019-02-26T05:06:15.314Z,0.00
2019-02-26T05:07:17.226Z,0.00
2019-02-26T05:08:17.638Z,0.00
2019-02-26T05:09:15.277Z,0.00
2019-02-26T05:10:15.261Z,0.00
2019-02-26T05:11:30.935Z,0.00
2019-02-26T05:12:15.234Z,0.00
2019-02-26T05:13:15.222Z,0.00
2019-02-26T05:14:20.806Z,0.00
2019-02-26T05:15:18.073Z,0.00
2019-02-26T05:16:15.195Z,0.00
2019-02-26T05:17:15.170Z,0.00
2019-02-26T05:18:17.628Z,0.00
2019-02-26T05:19:16.987Z,0.00
2019-02-26T05:20:16.541Z,0.00
2019-02-26T05:21:15.119Z,0.00
2019-02-26T05:22:15.105Z,0.00
2019-02-26T05:23:15.091Z,0.00
2019-02-26T05:24:18.068Z,0.00
2019-02-26T05:25:19.198Z,0.00
2019-02-26T05:26:16.087Z,0.00
2019-02-26T05:27:16.438Z,0.00
2019-02-26T05:28:17.503Z,0.00
2019-02-26T05:29:15.014Z,0.00
2019-02-26T05:30:17.180Z,0.00
2019-02-26T05:31:17.237Z,0.00
2019-02-26T05:32:14.975Z,0.00
2019-02-26T05:33:14.962Z,0.00
2019-02-26T05:34:17.744Z,0.00
2019-02-26T05:35:17.359Z,0.00
2019-02-26T05:36:16.990Z,0.00
2019-02-26T05:37:14.909Z,0.00
2019-02-26T05:38:14.899Z,0.00
2019-02-26T05:39:18.045Z,0.00
2019-02-26T05:40:16.406Z,0.00
2019-02-26T05:41:14.857Z,0.00
2019-02-26T05:42:14.843Z,0.00
2019-02-26T05:43:14.831Z,0.00
2019-02-26T05:44:14.820Z,0.00
2019-02-26T05:45:14.804Z,0.00
2019-02-26T05:46:15.906Z,0.00
2019-02-26T05:47:18.106Z,0.00
2019-02-26T05:48:17.795Z,0.00
2019-02-26T05:49:17.051Z,0.00
2019-02-26T05:50:16.670Z,0.00
2019-02-26T05:51:14.721Z,0.00
2019-02-26T05:52:14.707Z,0.00
2019-02-26T05:53:14.696Z,0.00
2019-02-26T05:54:17.817Z,0.00
2019-02-26T05:55:17.631Z,0.00
2019-02-26T05:56:17.184Z,0.00
2019-02-26T05:57:26.082Z,0.00
2019-02-26T05:58:16.398Z,0.00
2019-02-26T05:59:15.414Z,0.00
2019-02-26T06:00:18.184Z,0.00
2019-02-26T06:01:18.514Z,0.00
2019-02-26T06:02:16.956Z,0.00
2019-02-26T06:03:16.304Z,0.00
2019-02-26T06:04:15.569Z,0.00
2019-02-26T06:05:17.593Z,0.00
2019-02-26T06:06:14.521Z,0.00
2019-02-26T06:07:19.296Z,0.00
2019-02-26T06:08:14.496Z,0.00
2019-02-26T06:09:14.483Z,0.00
2019-02-26T06:10:14.469Z,0.00
2019-02-26T06:11:16.973Z,0.00
2019-02-26T06:12:14.443Z,0.00
2019-02-26T06:13:15.693Z,0.00
2019-02-26T06:14:14.416Z,0.00
2019-02-26T06:15:14.404Z,0.00
2019-02-26T06:16:14.388Z,0.00
2019-02-26T06:17:15.521Z,0.00
2019-02-26T06:18:14.375Z,0.00
2019-02-26T06:19:15.808Z,0.00
2019-02-26T06:20:14.335Z,5.63
2019-02-26T06:21:16.506Z,5.63
2019-02-26T06:22:17.004Z,5.63
2019-02-26T06:23:14.297Z,5.63
2019-02-26T06:24:14.282Z,5.63
2019-02-26T06:25:20.590Z,5.63
2019-02-26T06:26:17.475Z,5.63
2019-02-26T06:27:16.610Z,11.25
2019-02-26T06:28:16.010Z,11.25
2019-02-26T06:29:14.215Z,11.25
2019-02-26T06:30:14.204Z,11.25
2019-02-26T06:31:16.660Z,11.25
2019-02-26T06:32:14.178Z,16.88
2019-02-26T06:33:16.338Z,16.88
2019-02-26T06:34:16.175Z,16.88
2019-02-26T06:35:16.111Z,22.50
2019-02-26T06:36:14.122Z,22.50
2019-02-26T06:37:16.485Z,22.50
2019-02-26T06:38:14.099Z,22.50
2019-02-26T06:39:14.086Z,28.13
2019-02-26T06:40:14.069Z,28.13
2019-02-26T06:41:14.057Z,28.13
2019-02-26T06:42:14.572Z,33.75
2019-02-26T06:43:14.031Z,33.75
2019-02-26T06:44:14.016Z,33.75
2019-02-26T06:45:16.643Z,39.38
2019-02-26T06:46:14.188Z,39.38
2019-02-26T06:47:13.977Z,39.38
2019-02-26T06:48:16.926Z,39.38
2019-02-26T06:49:14.999Z,45.00
2019-02-26T06:50:16.039Z,45.00
2019-02-26T06:51:13.924Z,50.63
2019-02-26T06:52:16.129Z,50.63
2019-02-26T06:53:16.148Z,50.63
2019-02-26T06:54:15.481Z,56.25
2019-02-26T06:55:13.871Z,56.25
2019-02-26T06:56:15.998Z,56.25
2019-02-26T06:57:13.847Z,61.88
2019-02-26T06:58:13.833Z,61.88
2019-02-26T06:59:13.819Z,61.88
2019-02-26T07:00:13.806Z,67.50
2019-02-26T07:01:14.327Z,67.50
2019-02-26T07:02:13.781Z,73.13
2019-02-26T07:03:13.767Z,73.13
2019-02-26T07:04:13.754Z,73.13
2019-02-26T07:05:13.744Z,78.75
2019-02-26T07:06:13.728Z,78.75
2019-02-26T07:07:14.543Z,84.38
2019-02-26T07:08:13.701Z,84.38
2019-02-26T07:09:15.715Z,90.00
2019-02-26T07:10:16.288Z,90.00
2019-02-26T07:11:13.663Z,90.00
2019-02-26T07:12:14.614Z,95.63
2019-02-26T07:13:14.124Z,95.63
2019-02-26T07:14:13.625Z,95.63
2019-02-26T07:15:13.610Z,101.25
2019-02-26T07:16:13.598Z,101.25
2019-02-26T07:17:13.586Z,106.88
2019-02-26T07:18:16.976Z,106.88
2019-02-26T07:19:14.198Z,106.88
2019-02-26T07:20:13.549Z,112.50
2019-02-26T07:21:13.543Z,118.13
2019-02-26T07:22:15.944Z,123.75
2019-02-26T07:23:15.422Z,129.38
2019-02-26T07:24:15.265Z,140.63
2019-02-26T07:25:16.065Z,140.63
2019-02-26T07:26:14.315Z,140.63
2019-02-26T07:27:13.912Z,140.63
2019-02-26T07:28:15.173Z,140.63
2019-02-26T07:29:17.366Z,140.63
2019-02-26T07:30:13.421Z,140.63
2019-02-26T07:31:13.409Z,140.63
2019-02-26T07:32:14.828Z,146.25
2019-02-26T07:33:15.000Z,151.88
2019-02-26T07:34:15.196Z,151.88
2019-02-26T07:35:16.373Z,151.88
2019-02-26T07:36:13.346Z,151.88
2019-02-26T07:37:13.987Z,157.50
2019-02-26T07:38:13.322Z,163.13
2019-02-26T07:39:15.326Z,163.13
2019-02-26T07:40:15.875Z,168.75
2019-02-26T07:41:13.284Z,174.38
2019-02-26T07:42:14.720Z,180.00
2019-02-26T07:43:15.389Z,180.00
2019-02-26T07:44:15.694Z,185.63
2019-02-26T07:45:15.348Z,196.88
2019-02-26T07:46:14.697Z,202.50
2019-02-26T07:47:13.212Z,202.50
2019-02-26T07:48:16.240Z,225.00
2019-02-26T07:49:13.188Z,241.88
2019-02-26T07:50:14.560Z,258.75
2019-02-26T07:51:13.165Z,270.00
2019-02-26T07:52:13.154Z,275.63
2019-02-26T07:53:14.533Z,281.25
2019-02-26T07:54:13.133Z,286.88
2019-02-26T07:55:15.324Z,286.88
2019-02-26T07:56:13.112Z,286.88
2019-02-26T07:57:13.103Z,292.50
2019-02-26T07:58:13.744Z,298.13
2019-02-26T07:59:15.029Z,303.75
2019-02-26T08:00:13.076Z,309.38
2019-02-26T08:01:13.068Z,309.38
2019-02-26T08:02:13.593Z,320.63
2019-02-26T08:03:13.052Z,315.00
2019-02-26T08:04:13.582Z,320.63
2019-02-26T08:05:13.046Z,326.25
2019-02-26T08:06:14.042Z,331.88
2019-02-26T08:07:13.023Z,331.88
2019-02-26T08:08:14.314Z,343.13
2019-02-26T08:09:14.673Z,343.13
2019-02-26T08:10:14.559Z,343.13
2019-02-26T08:11:14.862Z,343.13
2019-02-26T08:12:13.723Z,348.75
2019-02-26T08:13:12.986Z,348.75
2019-02-26T08:14:14.321Z,354.38
2019-02-26T08:15:15.471Z,360.00
2019-02-26T08:16:12.972Z,371.25
2019-02-26T08:17:12.966Z,371.25
2019-02-26T08:18:12.962Z,376.88
2019-02-26T08:19:12.956Z,382.50
2019-02-26T08:20:14.852Z,388.13
2019-02-26T08:21:12.949Z,393.75
2019-02-26T08:22:12.946Z,405.00
2019-02-26T08:23:14.698Z,410.63
2019-02-26T08:24:14.777Z,421.88
2019-02-26T08:25:12.934Z,433.13
2019-02-26T08:26:12.932Z,438.75
2019-02-26T08:27:13.591Z,461.25
2019-02-26T08:28:13.536Z,478.13
2019-02-26T08:29:12.923Z,573.75
2019-02-26T08:30:14.750Z,708.75
2019-02-26T08:31:15.373Z,871.88
2019-02-26T08:32:15.887Z,1046.25
2019-02-26T08:33:12.913Z,1243.13
2019-02-26T08:34:15.115Z,1327.50
2019-02-26T08:35:12.923Z,1310.63
2019-02-26T08:36:14.082Z,1344.38
2019-02-26T08:37:12.905Z,1327.50
2019-02-26T08:38:12.904Z,1333.13
2019-02-26T08:39:15.622Z,1310.63
2019-02-26T08:40:12.901Z,1310.63
2019-02-26T08:41:12.899Z,1333.13
2019-02-26T08:42:12.900Z,1316.25
2019-02-26T08:43:12.897Z,1288.13
2019-02-26T08:44:12.896Z,1265.63
2019-02-26T08:45:14.949Z,1243.13
2019-02-26T08:46:14.167Z,1175.63
2019-02-26T08:47:13.936Z,1175.63
2019-02-26T08:48:13.281Z,1198.13
2019-02-26T08:49:13.760Z,1215.00
2019-02-26T08:50:14.858Z,1220.63
2019-02-26T08:51:16.178Z,1220.63
2019-02-26T08:52:12.894Z,1226.25
2019-02-26T08:53:12.895Z,1198.13
2019-02-26T08:54:20.501Z,1175.63
2019-02-26T08:55:13.657Z,1186.88
2019-02-26T08:56:12.896Z,1209.38
2019-02-26T08:57:12.897Z,1226.25
2019-02-26T08:58:12.898Z,1231.88
2019-02-26T08:59:12.898Z,1260.00
2019-02-26T09:00:12.901Z,1265.63
2019-02-26T09:01:12.900Z,1271.25
2019-02-26T09:02:12.902Z,1237.50
2019-02-26T09:03:13.867Z,1254.38
2019-02-26T09:04:14.522Z,1254.38
2019-02-26T09:05:12.907Z,1209.38
2019-02-26T09:06:14.604Z,1209.38
2019-02-26T09:07:14.086Z,1198.13
2019-02-26T09:08:14.003Z,1231.88
2019-02-26T09:09:12.914Z,1192.50
2019-02-26T09:10:14.943Z,1248.75
2019-02-26T09:11:13.535Z,1260.00
2019-02-26T09:12:15.126Z,1254.38
2019-02-26T09:13:14.528Z,1265.63
2019-02-26T09:14:14.240Z,1288.13
2019-02-26T09:15:12.928Z,1282.50
2019-02-26T09:16:12.932Z,1288.13
2019-02-26T09:17:12.956Z,1333.13
2019-02-26T09:18:12.939Z,1338.75
2019-02-26T09:19:12.941Z,1327.50
2019-02-26T09:20:14.702Z,1310.63
2019-02-26T09:21:15.140Z,1293.75
2019-02-26T09:22:14.995Z,1321.88
2019-02-26T09:23:16.334Z,1333.13
2019-02-26T09:24:12.959Z,1333.13
2019-02-26T09:25:12.963Z,1327.50
2019-02-26T09:26:12.967Z,1293.75
2019-02-26T09:27:12.969Z,1316.25
2019-02-26T09:28:12.974Z,1355.63
2019-02-26T09:29:14.974Z,1372.50
2019-02-26T09:30:14.067Z,1350.00
2019-02-26T09:31:14.204Z,1350.00
2019-02-26T09:32:14.415Z,1400.63
2019-02-26T09:33:12.994Z,1389.38
2019-02-26T09:34:12.998Z,1378.13
2019-02-26T09:35:13.024Z,1389.38
2019-02-26T09:36:15.045Z,1406.25
2019-02-26T09:37:13.012Z,1417.50
2019-02-26T09:38:15.053Z,1395.00
2019-02-26T09:39:13.584Z,1417.50
2019-02-26T09:40:13.028Z,1434.38
2019-02-26T09:41:14.211Z,1428.75
2019-02-26T09:42:13.039Z,1434.38
2019-02-26T09:43:15.546Z,1479.38
2019-02-26T09:44:13.050Z,1451.25
2019-02-26T09:45:13.170Z,1440.00
2019-02-26T09:46:16.214Z,1411.88
2019-02-26T09:47:13.067Z,1428.75
2019-02-26T09:48:15.235Z,1445.63
2019-02-26T09:49:13.079Z,1445.63
2019-02-26T09:50:15.151Z,1445.63
2019-02-26T09:51:14.750Z,1440.00
2019-02-26T09:52:13.097Z,1456.88
2019-02-26T09:53:13.103Z,1423.13
2019-02-26T09:54:15.117Z,1462.50
2019-02-26T09:55:13.115Z,1490.63
2019-02-26T09:56:13.121Z,1456.88
2019-02-26T09:57:15.555Z,1456.88
2019-02-26T09:58:13.958Z,1462.50
2019-02-26T09:59:14.786Z,1440.00
2019-02-26T10:00:14.587Z,1479.38
2019-02-26T10:01:13.892Z,1473.75
2019-02-26T10:02:13.160Z,1473.75
2019-02-26T10:03:15.043Z,1468.13
2019-02-26T10:04:13.173Z,1485.00
2019-02-26T10:05:14.097Z,1507.50
2019-02-26T10:06:14.162Z,1490.63
2019-02-26T10:07:14.365Z,1468.13
2019-02-26T10:08:13.200Z,1468.13
2019-02-26T10:09:15.695Z,1485.00
2019-02-26T10:10:14.144Z,1479.38
2019-02-26T10:11:13.221Z,1473.75
2019-02-26T10:12:15.678Z,1473.75
2019-02-26T10:13:13.235Z,1485.00
2019-02-26T10:14:15.066Z,1496.25
2019-02-26T10:15:13.251Z,1535.63
2019-02-26T10:16:13.256Z,1563.75
2019-02-26T10:17:14.207Z,1580.63
2019-02-26T10:18:13.270Z,1575.00
2019-02-26T10:19:14.861Z,1597.50
2019-02-26T10:20:13.285Z,1603.13
2019-02-26T10:21:14.819Z,1591.88
2019-02-26T10:22:13.777Z,1552.50
2019-02-26T10:23:13.306Z,1563.75
2019-02-26T10:24:13.313Z,1580.63
2019-02-26T10:25:15.170Z,1535.63
2019-02-26T10:26:13.328Z,1586.25
2019-02-26T10:27:14.459Z,1591.88
2019-02-26T10:28:14.093Z,1563.75
2019-02-26T10:29:13.353Z,1580.63
2019-02-26T10:30:14.432Z,1608.75
2019-02-26T10:31:13.365Z,1608.75
2019-02-26T10:32:13.374Z,1620.00
2019-02-26T10:33:17.405Z,1597.50
2019-02-26T10:34:15.608Z,1608.75
2019-02-26T10:35:15.936Z,1614.38
2019-02-26T10:36:15.517Z,1625.63
2019-02-26T10:37:13.413Z,1636.88
2019-02-26T10:38:13.422Z,1636.88
2019-02-26T10:39:15.095Z,1625.63
2019-02-26T10:40:14.472Z,1603.13
2019-02-26T10:41:13.443Z,1614.38
2019-02-26T10:42:13.452Z,1636.88
2019-02-26T10:43:13.459Z,1608.75
2019-02-26T10:44:14.720Z,1642.50
2019-02-26T10:45:13.476Z,1631.25
2019-02-26T10:46:13.483Z,1620.00
2019-02-26T10:47:13.491Z,1648.13
2019-02-26T10:48:15.958Z,1614.38
2019-02-26T10:49:13.507Z,1597.50
2019-02-26T10:50:16.186Z,1631.25
2019-02-26T10:51:16.644Z,1636.88
2019-02-26T10:52:16.868Z,1631.25
2019-02-26T10:53:16.140Z,1642.50
2019-02-26T10:54:17.799Z,1653.75
2019-02-26T10:55:17.205Z,1648.13
2019-02-26T10:56:13.563Z,1659.38
2019-02-26T10:57:14.423Z,1620.00
2019-02-26T10:58:13.611Z,1659.38
2019-02-26T10:59:15.785Z,1693.13
2019-02-26T11:00:13.603Z,1648.13
2019-02-26T11:01:13.603Z,1636.88
2019-02-26T11:02:14.697Z,1603.13
2019-02-26T11:03:14.990Z,1563.75
2019-02-26T11:04:13.628Z,1608.75
2019-02-26T11:05:14.264Z,1603.13
2019-02-26T11:06:16.765Z,1603.13
2019-02-26T11:07:14.275Z,1625.63
2019-02-26T11:08:13.665Z,1642.50
2019-02-26T11:09:17.252Z,1642.50
2019-02-26T11:10:14.659Z,1653.75
2019-02-26T11:11:16.028Z,1631.25
2019-02-26T11:12:13.698Z,1625.63
2019-02-26T11:13:15.894Z,1653.75
2019-02-26T11:14:16.586Z,1625.63
2019-02-26T11:15:13.722Z,1642.50
2019-02-26T11:16:17.455Z,1631.25
2019-02-26T11:17:13.740Z,1636.88
2019-02-26T11:18:15.007Z,1653.75
2019-02-26T11:19:13.756Z,1620.00
2019-02-26T11:20:13.764Z,1620.00
2019-02-26T11:21:13.773Z,1636.88
2019-02-26T11:22:17.666Z,1636.88
2019-02-26T11:23:16.109Z,1648.13
2019-02-26T11:24:13.797Z,1642.50
2019-02-26T11:25:15.798Z,1676.25
2019-02-26T11:26:15.423Z,1653.75
2019-02-26T11:27:13.822Z,1625.63
2019-02-26T11:28:13.827Z,1636.88
2019-02-26T11:29:13.836Z,1653.75
2019-02-26T11:30:13.842Z,1614.38
2019-02-26T11:31:14.648Z,1625.63
2019-02-26T11:32:15.529Z,1636.88
2019-02-26T11:33:15.595Z,1636.88
2019-02-26T11:34:13.871Z,1620.00
2019-02-26T11:35:14.666Z,1620.00
2019-02-26T11:36:15.664Z,1636.88
2019-02-26T11:37:13.891Z,1665.00
2019-02-26T11:38:14.922Z,1676.25
2019-02-26T11:39:13.903Z,1631.25
2019-02-26T11:40:13.910Z,1614.38
2019-02-26T11:41:13.917Z,1636.88
2019-02-26T11:42:15.861Z,1631.25
2019-02-26T11:43:14.952Z,1620.00
2019-02-26T11:44:19.031Z,1575.00
2019-02-26T11:45:14.337Z,1597.50
2019-02-26T11:46:13.949Z,1620.00
2019-02-26T11:47:16.072Z,1586.25
2019-02-26T11:48:13.959Z,1597.50
2019-02-26T11:49:16.320Z,1614.38
2019-02-26T11:50:13.971Z,1608.75
2019-02-26T11:51:16.820Z,1575.00
2019-02-26T11:52:13.982Z,1558.13
2019-02-26T11:53:13.988Z,1575.00
2019-02-26T11:54:15.091Z,1558.13
2019-02-26T11:55:13.997Z,1546.88
2019-02-26T11:56:15.875Z,1518.75
2019-02-26T11:57:15.390Z,1541.25
2019-02-26T11:58:16.020Z,1541.25
2019-02-26T11:59:14.907Z,1513.13
2019-02-26T12:00:24.376Z,1541.25
2019-02-26T12:01:14.030Z,1541.25
2019-02-26T12:02:14.035Z,1513.13
2019-02-26T12:03:14.038Z,1501.88
2019-02-26T12:04:16.537Z,1496.25
2019-02-26T12:05:14.049Z,1513.13
2019-02-26T12:06:14.055Z,1496.25
2019-02-26T12:07:14.058Z,1451.25
2019-02-26T12:08:16.362Z,1451.25
2019-02-26T12:09:15.952Z,1468.13
2019-02-26T12:10:14.765Z,1479.38
2019-02-26T12:11:17.669Z,1440.00
2019-02-26T12:12:14.081Z,1395.00
2019-02-26T12:13:14.619Z,1423.13
2019-02-26T12:14:16.399Z,1411.88
2019-02-26T12:15:15.202Z,1400.63
2019-02-26T12:16:14.099Z,1434.38
2019-02-26T12:17:14.103Z,1395.00
2019-02-26T12:18:15.435Z,1372.50
2019-02-26T12:19:14.111Z,1355.63
2019-02-26T12:20:14.793Z,1333.13
2019-02-26T12:21:14.121Z,1321.88
2019-02-26T12:22:14.124Z,1316.25
2019-02-26T12:23:16.145Z,1327.50
2019-02-26T12:24:14.135Z,1299.38
2019-02-26T12:25:14.136Z,1192.50
2019-02-26T12:26:16.332Z,939.38
2019-02-26T12:27:18.084Z,686.25
2019-02-26T12:28:14.147Z,517.50
2019-02-26T12:29:16.209Z,495.00
2019-02-26T12:30:15.826Z,483.75
2019-02-26T12:31:14.159Z,478.13
2019-02-26T12:32:14.165Z,466.88
2019-02-26T12:33:14.783Z,461.25
2019-02-26T12:34:15.711Z,455.63
2019-02-26T12:35:17.249Z,450.00
2019-02-26T12:36:14.178Z,444.38
2019-02-26T12:37:14.184Z,433.13
2019-02-26T12:38:20.702Z,427.50
2019-02-26T12:39:16.153Z,427.50
2019-02-26T12:40:16.008Z,421.88
2019-02-26T12:41:15.861Z,416.25
2019-02-26T12:42:15.842Z,416.25
2019-02-26T12:43:16.334Z,427.50
2019-02-26T12:44:16.114Z,438.75
2019-02-26T12:45:14.210Z,461.25
2019-02-26T12:46:14.214Z,585.00